sensor_id;sensor_type;location;lat;lon;timestamp;temperature;humidity
64937;SHT30;51452;47.698;19.050;2023-01-28T00:00:29;2.92;64.73
64937;SHT30;51452;47.698;19.050;2023-01-28T00:02:54;2.89;64.10
64937;SHT30;51452;47.698;19.050;2023-01-28T00:05:20;2.85;64.85
64937;SHT30;51452;47.698;19.050;2023-01-28T00:07:49;2.96;65.11
64937;SHT30;51452;47.698;19.050;2023-01-28T00:10:15;2.91;64.80
64937;SHT30;51452;47.698;19.050;2023-01-28T00:12:40;2.97;65.19
64937;SHT30;51452;47.698;19.050;2023-01-28T00:15:06;2.92;65.24
64937;SHT30;51452;47.698;19.050;2023-01-28T00:17:32;2.99;65.32
64937;SHT30;51452;47.698;19.050;2023-01-28T00:19:57;2.95;65.68
64937;SHT30;51452;47.698;19.050;2023-01-28T00:22:23;3.00;65.79
64937;SHT30;51452;47.698;19.050;2023-01-28T00:24:48;2.88;66.09
64937;SHT30;51452;47.698;19.050;2023-01-28T00:27:13;2.93;66.00
64937;SHT30;51452;47.698;19.050;2023-01-28T00:29:39;2.93;66.15
64937;SHT30;51452;47.698;19.050;2023-01-28T00:32:04;2.95;66.15
64937;SHT30;51452;47.698;19.050;2023-01-28T00:34:30;2.99;66.16
64937;SHT30;51452;47.698;19.050;2023-01-28T00:36:55;3.02;66.40
64937;SHT30;51452;47.698;19.050;2023-01-28T00:39:25;2.99;66.41
64937;SHT30;51452;47.698;19.050;2023-01-28T00:41:52;2.91;66.96
64937;SHT30;51452;47.698;19.050;2023-01-28T00:44:18;3.00;66.76
64937;SHT30;51452;47.698;19.050;2023-01-28T00:46:44;3.07;66.73
64937;SHT30;51452;47.698;19.050;2023-01-28T00:49:09;3.00;66.83
64937;SHT30;51452;47.698;19.050;2023-01-28T00:51:35;2.99;66.76
64937;SHT30;51452;47.698;19.050;2023-01-28T00:54:01;3.10;66.54
64937;SHT30;51452;47.698;19.050;2023-01-28T00:56:27;3.10;66.64
64937;SHT30;51452;47.698;19.050;2023-01-28T00:58:52;3.13;66.70
64937;SHT30;51452;47.698;19.050;2023-01-28T01:01:23;3.10;67.11
64937;SHT30;51452;47.698;19.050;2023-01-28T01:03:49;3.03;67.16
64937;SHT30;51452;47.698;19.050;2023-01-28T01:06:29;2.95;67.47
64937;SHT30;51452;47.698;19.050;2023-01-28T01:08:54;2.96;67.51
64937;SHT30;51452;47.698;19.050;2023-01-28T01:11:20;3.00;68.07
64937;SHT30;51452;47.698;19.050;2023-01-28T01:14:03;2.91;67.63
64937;SHT30;51452;47.698;19.050;2023-01-28T01:16:31;2.95;68.14
64937;SHT30;51452;47.698;19.050;2023-01-28T01:18:58;2.97;68.42
64937;SHT30;51452;47.698;19.050;2023-01-28T01:21:26;2.88;69.02
64937;SHT30;51452;47.698;19.050;2023-01-28T01:23:52;2.84;69.56
64937;SHT30;51452;47.698;19.050;2023-01-28T01:26:18;2.71;70.32
64937;SHT30;51452;47.698;19.050;2023-01-28T01:28:43;2.69;70.60
64937;SHT30;51452;47.698;19.050;2023-01-28T01:31:14;2.54;71.22
64937;SHT30;51452;47.698;19.050;2023-01-28T01:33:44;2.49;71.31
64937;SHT30;51452;47.698;19.050;2023-01-28T01:36:12;2.44;71.65
64937;SHT30;51452;47.698;19.050;2023-01-28T01:38:38;2.45;71.94
64937;SHT30;51452;47.698;19.050;2023-01-28T01:41:06;2.48;71.76
64937;SHT30;51452;47.698;19.050;2023-01-28T01:43:49;2.47;71.71
64937;SHT30;51452;47.698;19.050;2023-01-28T01:46:22;2.47;71.71
64937;SHT30;51452;47.698;19.050;2023-01-28T01:48:49;2.47;71.88
64937;SHT30;51452;47.698;19.050;2023-01-28T01:51:19;2.58;71.48
64937;SHT30;51452;47.698;19.050;2023-01-28T01:53:48;2.49;71.71
64937;SHT30;51452;47.698;19.050;2023-01-28T01:56:18;2.41;71.93
64937;SHT30;51452;47.698;19.050;2023-01-28T01:58:47;2.38;71.81
64937;SHT30;51452;47.698;19.050;2023-01-28T02:01:14;2.37;71.85
64937;SHT30;51452;47.698;19.050;2023-01-28T02:06:07;2.28;72.51
64937;SHT30;51452;47.698;19.050;2023-01-28T02:08:33;2.26;72.80
64937;SHT30;51452;47.698;19.050;2023-01-28T02:11:04;2.33;72.93
64937;SHT30;51452;47.698;19.050;2023-01-28T02:13:46;2.30;73.01
64937;SHT30;51452;47.698;19.050;2023-01-28T02:16:12;2.31;73.20
64937;SHT30;51452;47.698;19.050;2023-01-28T02:18:38;2.24;73.40
64937;SHT30;51452;47.698;19.050;2023-01-28T02:29:00;2.21;73.25
64937;SHT30;51452;47.698;19.050;2023-01-28T02:31:33;2.24;73.30
64937;SHT30;51452;47.698;19.050;2023-01-28T02:34:57;2.30;72.96
64937;SHT30;51452;47.698;19.050;2023-01-28T02:37:26;2.31;72.47
64937;SHT30;51452;47.698;19.050;2023-01-28T02:39:57;2.35;72.07
64937;SHT30;51452;47.698;19.050;2023-01-28T02:42:31;2.37;71.81
64937;SHT30;51452;47.698;19.050;2023-01-28T02:44:56;2.47;71.83
64937;SHT30;51452;47.698;19.050;2023-01-28T02:47:22;2.51;71.33
64937;SHT30;51452;47.698;19.050;2023-01-28T02:50:09;2.59;71.49
64937;SHT30;51452;47.698;19.050;2023-01-28T02:52:43;2.58;71.34
64937;SHT30;51452;47.698;19.050;2023-01-28T02:56:28;2.49;71.40
64937;SHT30;51452;47.698;19.050;2023-01-28T02:58:55;2.41;71.63
64937;SHT30;51452;47.698;19.050;2023-01-28T03:01:41;2.40;71.72
64937;SHT30;51452;47.698;19.050;2023-01-28T03:04:18;2.41;71.94
64937;SHT30;51452;47.698;19.050;2023-01-28T03:06:49;2.49;71.82
64937;SHT30;51452;47.698;19.050;2023-01-28T03:09:17;2.33;72.10
64937;SHT30;51452;47.698;19.050;2023-01-28T03:14:48;2.42;72.00
64937;SHT30;51452;47.698;19.050;2023-01-28T03:21:11;2.49;71.05
64937;SHT30;51452;47.698;19.050;2023-01-28T03:23:59;2.55;70.70
64937;SHT30;51452;47.698;19.050;2023-01-28T03:27:28;2.55;70.28
64937;SHT30;51452;47.698;19.050;2023-01-28T03:30:32;2.61;70.05
64937;SHT30;51452;47.698;19.050;2023-01-28T03:33:18;2.58;70.09
64937;SHT30;51452;47.698;19.050;2023-01-28T03:36:03;2.59;70.01
64937;SHT30;51452;47.698;19.050;2023-01-28T03:38:47;2.61;70.36
64937;SHT30;51452;47.698;19.050;2023-01-28T03:41:21;2.57;70.01
64937;SHT30;51452;47.698;19.050;2023-01-28T03:43:48;2.64;69.83
64937;SHT30;51452;47.698;19.050;2023-01-28T03:46:14;2.65;69.92
64937;SHT30;51452;47.698;19.050;2023-01-28T03:48:39;2.58;69.92
64937;SHT30;51452;47.698;19.050;2023-01-28T03:51:05;2.64;70.02
64937;SHT30;51452;47.698;19.050;2023-01-28T03:53:31;2.62;69.74
64937;SHT30;51452;47.698;19.050;2023-01-28T03:55:56;2.66;69.54
64937;SHT30;51452;47.698;19.050;2023-01-28T03:58:23;2.74;69.50
64937;SHT30;51452;47.698;19.050;2023-01-28T04:01:11;2.68;68.88
64937;SHT30;51452;47.698;19.050;2023-01-28T04:03:36;2.72;68.67
64937;SHT30;51452;47.698;19.050;2023-01-28T04:06:05;2.71;68.64
64937;SHT30;51452;47.698;19.050;2023-01-28T04:08:31;2.81;68.25
64937;SHT30;51452;47.698;19.050;2023-01-28T04:10:57;2.68;67.95
64937;SHT30;51452;47.698;19.050;2023-01-28T04:13:22;2.74;67.93
64937;SHT30;51452;47.698;19.050;2023-01-28T04:15:48;2.85;68.04
64937;SHT30;51452;47.698;19.050;2023-01-28T04:18:14;2.85;68.05
64937;SHT30;51452;47.698;19.050;2023-01-28T04:20:39;2.79;68.21
64937;SHT30;51452;47.698;19.050;2023-01-28T04:23:05;2.79;68.34
64937;SHT30;51452;47.698;19.050;2023-01-28T04:25:32;2.71;68.38
64937;SHT30;51452;47.698;19.050;2023-01-28T04:27:57;2.72;68.46
64937;SHT30;51452;47.698;19.050;2023-01-28T04:30:23;2.68;68.50
64937;SHT30;51452;47.698;19.050;2023-01-28T04:32:48;2.64;68.47
64937;SHT30;51452;47.698;19.050;2023-01-28T04:35:15;2.58;68.89
64937;SHT30;51452;47.698;19.050;2023-01-28T04:37:41;2.58;68.93
64937;SHT30;51452;47.698;19.050;2023-01-28T04:40:08;2.66;68.92
64937;SHT30;51452;47.698;19.050;2023-01-28T04:42:33;2.69;68.81
64937;SHT30;51452;47.698;19.050;2023-01-28T04:44:58;2.68;68.75
64937;SHT30;51452;47.698;19.050;2023-01-28T04:47:24;2.66;68.81
64937;SHT30;51452;47.698;19.050;2023-01-28T04:49:49;2.61;68.79
64937;SHT30;51452;47.698;19.050;2023-01-28T04:52:15;2.62;68.67
64937;SHT30;51452;47.698;19.050;2023-01-28T04:54:40;2.58;68.87
64937;SHT30;51452;47.698;19.050;2023-01-28T04:57:06;2.62;69.14
64937;SHT30;51452;47.698;19.050;2023-01-28T04:59:31;2.62;69.19
64937;SHT30;51452;47.698;19.050;2023-01-28T05:01:57;2.66;69.45
64937;SHT30;51452;47.698;19.050;2023-01-28T05:04:22;2.71;69.44
64937;SHT30;51452;47.698;19.050;2023-01-28T05:06:47;2.74;69.42
64937;SHT30;51452;47.698;19.050;2023-01-28T05:09:13;2.78;69.32
64937;SHT30;51452;47.698;19.050;2023-01-28T05:11:38;2.74;69.61
64937;SHT30;51452;47.698;19.050;2023-01-28T05:14:04;2.65;70.02
64937;SHT30;51452;47.698;19.050;2023-01-28T05:16:29;2.64;70.55
64937;SHT30;51452;47.698;19.050;2023-01-28T05:18:56;2.72;70.41
64937;SHT30;51452;47.698;19.050;2023-01-28T05:21:21;2.69;70.39
64937;SHT30;51452;47.698;19.050;2023-01-28T05:23:47;2.69;70.75
64937;SHT30;51452;47.698;19.050;2023-01-28T05:26:12;2.64;71.24
64937;SHT30;51452;47.698;19.050;2023-01-28T05:28:38;2.65;71.08
64937;SHT30;51452;47.698;19.050;2023-01-28T05:31:04;2.65;71.29
64937;SHT30;51452;47.698;19.050;2023-01-28T05:33:30;2.57;71.50
64937;SHT30;51452;47.698;19.050;2023-01-28T05:35:56;2.64;71.48
64937;SHT30;51452;47.698;19.050;2023-01-28T05:38:21;2.59;71.56
64937;SHT30;51452;47.698;19.050;2023-01-28T05:40:47;2.61;71.53
64937;SHT30;51452;47.698;19.050;2023-01-28T05:43:13;2.57;71.62
64937;SHT30;51452;47.698;19.050;2023-01-28T05:45:38;2.55;71.90
64937;SHT30;51452;47.698;19.050;2023-01-28T05:48:04;2.51;72.18
64937;SHT30;51452;47.698;19.050;2023-01-28T05:50:29;2.45;72.32
64937;SHT30;51452;47.698;19.050;2023-01-28T05:52:55;2.54;72.28
64937;SHT30;51452;47.698;19.050;2023-01-28T05:55:20;2.49;72.47
64937;SHT30;51452;47.698;19.050;2023-01-28T05:57:47;2.58;72.52
64937;SHT30;51452;47.698;19.050;2023-01-28T06:00:13;2.51;72.67
64937;SHT30;51452;47.698;19.050;2023-01-28T06:02:40;2.51;72.60
64937;SHT30;51452;47.698;19.050;2023-01-28T06:05:06;2.55;72.91
64937;SHT30;51452;47.698;19.050;2023-01-28T06:07:32;2.61;72.49
64937;SHT30;51452;47.698;19.050;2023-01-28T06:09:57;2.58;72.50
64937;SHT30;51452;47.698;19.050;2023-01-28T06:12:23;2.59;72.77
64937;SHT30;51452;47.698;19.050;2023-01-28T06:14:48;2.58;73.07
64937;SHT30;51452;47.698;19.050;2023-01-28T06:17:14;2.51;73.37
64937;SHT30;51452;47.698;19.050;2023-01-28T06:19:39;2.41;73.68
64937;SHT30;51452;47.698;19.050;2023-01-28T06:22:05;2.38;73.93
64937;SHT30;51452;47.698;19.050;2023-01-28T06:24:30;2.44;73.83
64937;SHT30;51452;47.698;19.050;2023-01-28T06:26:55;2.41;73.93
64937;SHT30;51452;47.698;19.050;2023-01-28T06:29:21;2.44;73.85
64937;SHT30;51452;47.698;19.050;2023-01-28T06:31:47;2.51;73.69
64937;SHT30;51452;47.698;19.050;2023-01-28T06:34:12;2.41;74.04
64937;SHT30;51452;47.698;19.050;2023-01-28T06:36:38;2.42;74.24
64937;SHT30;51452;47.698;19.050;2023-01-28T06:39:03;2.40;74.33
64937;SHT30;51452;47.698;19.050;2023-01-28T06:41:29;2.37;74.47
64937;SHT30;51452;47.698;19.050;2023-01-28T06:43:55;2.31;74.75
64937;SHT30;51452;47.698;19.050;2023-01-28T06:46:20;2.33;75.03
64937;SHT30;51452;47.698;19.050;2023-01-28T06:48:46;2.38;75.08
64937;SHT30;51452;47.698;19.050;2023-01-28T06:51:11;2.33;75.34
64937;SHT30;51452;47.698;19.050;2023-01-28T06:53:37;2.44;75.21
64937;SHT30;51452;47.698;19.050;2023-01-28T06:56:02;2.42;75.22
64937;SHT30;51452;47.698;19.050;2023-01-28T06:58:28;2.44;75.13
64937;SHT30;51452;47.698;19.050;2023-01-28T07:00:53;2.47;74.92
64937;SHT30;51452;47.698;19.050;2023-01-28T07:03:19;2.58;74.97
64937;SHT30;51452;47.698;19.050;2023-01-28T07:05:44;2.55;73.77
64937;SHT30;51452;47.698;19.050;2023-01-28T07:08:10;2.71;73.83
64937;SHT30;51452;47.698;19.050;2023-01-28T07:10:36;2.76;74.17
64937;SHT30;51452;47.698;19.050;2023-01-28T07:13:01;2.76;73.80
64937;SHT30;51452;47.698;19.050;2023-01-28T07:15:27;2.86;74.38
64937;SHT30;51452;47.698;19.050;2023-01-28T07:17:53;2.82;75.04
64937;SHT30;51452;47.698;19.050;2023-01-28T07:20:18;2.84;75.14
64937;SHT30;51452;47.698;19.050;2023-01-28T07:22:44;2.91;74.92
64937;SHT30;51452;47.698;19.050;2023-01-28T07:25:11;2.96;75.04
64937;SHT30;51452;47.698;19.050;2023-01-28T07:27:37;2.91;73.69
64937;SHT30;51452;47.698;19.050;2023-01-28T07:30:03;2.84;72.65
64937;SHT30;51452;47.698;19.050;2023-01-28T07:32:29;2.81;70.63
64937;SHT30;51452;47.698;19.050;2023-01-28T07:34:54;2.81;70.68
64937;SHT30;51452;47.698;19.050;2023-01-28T07:37:20;2.79;70.57
64937;SHT30;51452;47.698;19.050;2023-01-28T07:39:45;2.76;70.18
64937;SHT30;51452;47.698;19.050;2023-01-28T07:42:11;2.95;70.68
64937;SHT30;51452;47.698;19.050;2023-01-28T07:44:37;2.96;70.26
64937;SHT30;51452;47.698;19.050;2023-01-28T07:47:03;3.05;70.32
64937;SHT30;51452;47.698;19.050;2023-01-28T07:49:29;3.07;70.46
64937;SHT30;51452;47.698;19.050;2023-01-28T07:51:55;3.02;70.50
64937;SHT30;51452;47.698;19.050;2023-01-28T07:54:20;3.05;70.80
64937;SHT30;51452;47.698;19.050;2023-01-28T07:56:45;2.92;70.42
64937;SHT30;51452;47.698;19.050;2023-01-28T07:59:11;2.89;70.56
64937;SHT30;51452;47.698;19.050;2023-01-28T08:01:36;2.79;70.94
64937;SHT30;51452;47.698;19.050;2023-01-28T08:04:02;2.82;71.11
64937;SHT30;51452;47.698;19.050;2023-01-28T08:06:28;2.89;71.62
64937;SHT30;51452;47.698;19.050;2023-01-28T08:08:54;2.75;71.62
64937;SHT30;51452;47.698;19.050;2023-01-28T08:11:20;2.69;71.93
64937;SHT30;51452;47.698;19.050;2023-01-28T08:13:47;2.69;72.21
64937;SHT30;51452;47.698;19.050;2023-01-28T08:16:12;2.81;72.17
64937;SHT30;51452;47.698;19.050;2023-01-28T08:18:37;2.82;72.26
64937;SHT30;51452;47.698;19.050;2023-01-28T08:21:03;2.78;71.75
64937;SHT30;51452;47.698;19.050;2023-01-28T08:23:29;2.89;71.68
64937;SHT30;51452;47.698;19.050;2023-01-28T08:25:57;2.88;71.82
64937;SHT30;51452;47.698;19.050;2023-01-28T08:28:23;2.93;71.42
64937;SHT30;51452;47.698;19.050;2023-01-28T08:30:49;2.86;70.79
64937;SHT30;51452;47.698;19.050;2023-01-28T08:33:15;2.89;71.71
64937;SHT30;51452;47.698;19.050;2023-01-28T08:35:41;2.99;71.47
64937;SHT30;51452;47.698;19.050;2023-01-28T08:38:07;3.02;70.41
64937;SHT30;51452;47.698;19.050;2023-01-28T08:40:33;3.00;70.14
64937;SHT30;51452;47.698;19.050;2023-01-28T08:42:59;3.00;69.53
64937;SHT30;51452;47.698;19.050;2023-01-28T08:45:26;3.05;69.49
64937;SHT30;51452;47.698;19.050;2023-01-28T08:48:00;3.07;68.45
64937;SHT30;51452;47.698;19.050;2023-01-28T08:50:28;3.15;69.29
64937;SHT30;51452;47.698;19.050;2023-01-28T08:52:56;3.23;68.70
64937;SHT30;51452;47.698;19.050;2023-01-28T08:55:21;3.24;68.27
64937;SHT30;51452;47.698;19.050;2023-01-28T08:57:47;3.37;68.38
64937;SHT30;51452;47.698;19.050;2023-01-28T09:00:13;3.44;67.44
64937;SHT30;51452;47.698;19.050;2023-01-28T09:02:39;3.46;67.79
64937;SHT30;51452;47.698;19.050;2023-01-28T09:05:05;3.53;66.74
64937;SHT30;51452;47.698;19.050;2023-01-28T09:07:30;3.77;67.06
64937;SHT30;51452;47.698;19.050;2023-01-28T09:09:56;3.81;66.60
64937;SHT30;51452;47.698;19.050;2023-01-28T09:12:22;3.85;65.92
64937;SHT30;51452;47.698;19.050;2023-01-28T09:14:47;3.87;64.68
64937;SHT30;51452;47.698;19.050;2023-01-28T09:17:13;3.81;65.21
64937;SHT30;51452;47.698;19.050;2023-01-28T09:19:38;3.88;66.32
64937;SHT30;51452;47.698;19.050;2023-01-28T09:22:04;3.89;64.71
64937;SHT30;51452;47.698;19.050;2023-01-28T09:24:29;3.74;65.35
64937;SHT30;51452;47.698;19.050;2023-01-28T09:26:55;3.85;66.06
64937;SHT30;51452;47.698;19.050;2023-01-28T09:29:20;3.74;63.83
64937;SHT30;51452;47.698;19.050;2023-01-28T09:31:46;3.81;64.78
64937;SHT30;51452;47.698;19.050;2023-01-28T09:34:11;3.95;65.40
64937;SHT30;51452;47.698;19.050;2023-01-28T09:36:37;4.05;64.08
64937;SHT30;51452;47.698;19.050;2023-01-28T09:39:02;4.09;64.64
64937;SHT30;51452;47.698;19.050;2023-01-28T09:41:53;3.88;62.79
64937;SHT30;51452;47.698;19.050;2023-01-28T09:47:24;3.85;63.86
64937;SHT30;51452;47.698;19.050;2023-01-28T09:49:53;3.88;63.98
64937;SHT30;51452;47.698;19.050;2023-01-28T09:52:22;4.02;63.10
64937;SHT30;51452;47.698;19.050;2023-01-28T09:54:52;4.08;63.71
64937;SHT30;51452;47.698;19.050;2023-01-28T09:57:24;4.02;63.32
64937;SHT30;51452;47.698;19.050;2023-01-28T09:59:50;3.97;62.77
64937;SHT30;51452;47.698;19.050;2023-01-28T10:02:49;3.87;63.11
64937;SHT30;51452;47.698;19.050;2023-01-28T10:05:31;3.95;63.43
64937;SHT30;51452;47.698;19.050;2023-01-28T10:08:11;4.06;63.95
64937;SHT30;51452;47.698;19.050;2023-01-28T10:10:47;4.15;63.15
64937;SHT30;51452;47.698;19.050;2023-01-28T10:16:33;4.05;62.84
64937;SHT30;51452;47.698;19.050;2023-01-28T10:19:02;4.15;62.84
64937;SHT30;51452;47.698;19.050;2023-01-28T10:24:23;4.28;62.64
64937;SHT30;51452;47.698;19.050;2023-01-28T10:26:49;4.35;63.26
64937;SHT30;51452;47.698;19.050;2023-01-28T10:29:20;4.33;63.05
64937;SHT30;51452;47.698;19.050;2023-01-28T10:34:18;4.35;63.39
64937;SHT30;51452;47.698;19.050;2023-01-28T10:36:45;4.29;62.61
64937;SHT30;51452;47.698;19.050;2023-01-28T10:39:14;4.29;62.87
64937;SHT30;51452;47.698;19.050;2023-01-28T10:41:40;4.28;62.00
64937;SHT30;51452;47.698;19.050;2023-01-28T10:44:14;4.32;62.83
64937;SHT30;51452;47.698;19.050;2023-01-28T10:46:42;4.36;62.02
64937;SHT30;51452;47.698;19.050;2023-01-28T10:49:13;4.33;62.73
64937;SHT30;51452;47.698;19.050;2023-01-28T10:51:41;4.40;62.23
64937;SHT30;51452;47.698;19.050;2023-01-28T10:57:00;4.43;62.44
64937;SHT30;51452;47.698;19.050;2023-01-28T10:59:31;4.63;62.26
64937;SHT30;51452;47.698;19.050;2023-01-28T11:01:59;4.87;63.27
64937;SHT30;51452;47.698;19.050;2023-01-28T11:04:33;4.81;60.57
64937;SHT30;51452;47.698;19.050;2023-01-28T11:09:36;4.80;60.02
64937;SHT30;51452;47.698;19.050;2023-01-28T11:12:11;4.81;59.95
64937;SHT30;51452;47.698;19.050;2023-01-28T11:14:49;4.69;59.89
64937;SHT30;51452;47.698;19.050;2023-01-28T11:17:17;4.76;60.52
64937;SHT30;51452;47.698;19.050;2023-01-28T11:19:43;4.80;60.91
64937;SHT30;51452;47.698;19.050;2023-01-28T11:22:42;4.81;60.78
64937;SHT30;51452;47.698;19.050;2023-01-28T11:25:31;4.81;59.73
64937;SHT30;51452;47.698;19.050;2023-01-28T11:27:58;4.90;59.79
64937;SHT30;51452;47.698;19.050;2023-01-28T11:30:27;4.83;58.61
64937;SHT30;51452;47.698;19.050;2023-01-28T11:33:21;4.76;59.62
64937;SHT30;51452;47.698;19.050;2023-01-28T11:36:21;4.59;59.71
64937;SHT30;51452;47.698;19.050;2023-01-28T11:39:02;4.88;60.56
64937;SHT30;51452;47.698;19.050;2023-01-28T11:41:37;4.88;60.27
64937;SHT30;51452;47.698;19.050;2023-01-28T11:55:07;5.09;60.37
64937;SHT30;51452;47.698;19.050;2023-01-28T12:00:32;5.17;59.86
64937;SHT30;51452;47.698;19.050;2023-01-28T12:03:08;5.19;58.12
64937;SHT30;51452;47.698;19.050;2023-01-28T12:08:36;5.24;58.29
64937;SHT30;51452;47.698;19.050;2023-01-28T12:11:32;5.07;58.90
64937;SHT30;51452;47.698;19.050;2023-01-28T12:14:26;5.29;60.53
64937;SHT30;51452;47.698;19.050;2023-01-28T12:17:17;5.36;60.43
64937;SHT30;51452;47.698;19.050;2023-01-28T12:19:55;5.40;59.47
64937;SHT30;51452;47.698;19.050;2023-01-28T12:25:37;5.46;58.35
64937;SHT30;51452;47.698;19.050;2023-01-28T12:33:44;5.22;61.79
64937;SHT30;51452;47.698;19.050;2023-01-28T12:36:25;5.05;62.75
64937;SHT30;51452;47.698;19.050;2023-01-28T12:39:23;5.08;62.50
64937;SHT30;51452;47.698;19.050;2023-01-28T12:41:56;5.12;63.89
64937;SHT30;51452;47.698;19.050;2023-01-28T12:44:32;5.21;63.53
64937;SHT30;51452;47.698;19.050;2023-01-28T12:47:06;5.25;63.81
64937;SHT30;51452;47.698;19.050;2023-01-28T12:49:41;5.14;63.60
64937;SHT30;51452;47.698;19.050;2023-01-28T12:52:20;5.19;64.49
64937;SHT30;51452;47.698;19.050;2023-01-28T12:55:10;5.24;64.51
64937;SHT30;51452;47.698;19.050;2023-01-28T12:57:37;5.29;64.17
64937;SHT30;51452;47.698;19.050;2023-01-28T13:02:48;5.15;64.96
64937;SHT30;51452;47.698;19.050;2023-01-28T13:05:24;5.05;64.99
64937;SHT30;51452;47.698;19.050;2023-01-28T13:08:00;5.05;65.08
64937;SHT30;51452;47.698;19.050;2023-01-28T13:10:46;4.98;66.10
64937;SHT30;51452;47.698;19.050;2023-01-28T13:13:37;4.97;65.60
64937;SHT30;51452;47.698;19.050;2023-01-28T13:16:06;5.01;66.14
64937;SHT30;51452;47.698;19.050;2023-01-28T13:18:45;5.02;65.80
64937;SHT30;51452;47.698;19.050;2023-01-28T13:21:14;4.87;65.65
64937;SHT30;51452;47.698;19.050;2023-01-28T13:23:46;4.91;66.34
64937;SHT30;51452;47.698;19.050;2023-01-28T13:28:43;4.97;66.03
64937;SHT30;51452;47.698;19.050;2023-01-28T13:31:14;5.02;66.30
64937;SHT30;51452;47.698;19.050;2023-01-28T13:33:48;4.95;65.70
64937;SHT30;51452;47.698;19.050;2023-01-28T13:36:30;4.94;65.65
64937;SHT30;51452;47.698;19.050;2023-01-28T13:44:02;4.97;65.95
64937;SHT30;51452;47.698;19.050;2023-01-28T13:46:28;4.92;66.48
64937;SHT30;51452;47.698;19.050;2023-01-28T13:48:57;5.01;67.08
64937;SHT30;51452;47.698;19.050;2023-01-28T13:51:27;4.94;66.66
64937;SHT30;51452;47.698;19.050;2023-01-28T13:54:13;4.92;66.98
64937;SHT30;51452;47.698;19.050;2023-01-28T14:10:54;5.01;67.19
64937;SHT30;51452;47.698;19.050;2023-01-28T14:16:55;4.78;67.64
64937;SHT30;51452;47.698;19.050;2023-01-28T14:19:27;4.71;67.49
64937;SHT30;51452;47.698;19.050;2023-01-28T14:21:54;4.67;67.45
64937;SHT30;51452;47.698;19.050;2023-01-28T14:24:20;4.54;68.14
64937;SHT30;51452;47.698;19.050;2023-01-28T14:26:51;4.43;68.96
64937;SHT30;51452;47.698;19.050;2023-01-28T14:31:49;4.47;69.08
64937;SHT30;51452;47.698;19.050;2023-01-28T14:34:32;4.33;68.95
64937;SHT30;51452;47.698;19.050;2023-01-28T14:37:07;4.25;69.59
64937;SHT30;51452;47.698;19.050;2023-01-28T14:39:51;4.15;69.79
64937;SHT30;51452;47.698;19.050;2023-01-28T14:58:39;4.02;70.84
64937;SHT30;51452;47.698;19.050;2023-01-28T15:01:24;4.02;70.99
64937;SHT30;51452;47.698;19.050;2023-01-28T15:03:51;3.99;70.77
64937;SHT30;51452;47.698;19.050;2023-01-28T15:06:19;4.01;70.97
64937;SHT30;51452;47.698;19.050;2023-01-28T15:08:46;3.99;70.82
64937;SHT30;51452;47.698;19.050;2023-01-28T15:11:14;3.91;70.99
64937;SHT30;51452;47.698;19.050;2023-01-28T15:13:49;3.82;71.35
64937;SHT30;51452;47.698;19.050;2023-01-28T15:16:19;3.71;71.63
64937;SHT30;51452;47.698;19.050;2023-01-28T15:18:45;3.71;71.76
64937;SHT30;51452;47.698;19.050;2023-01-28T15:21:11;3.71;71.80
64937;SHT30;51452;47.698;19.050;2023-01-28T15:23:41;3.64;71.80
64937;SHT30;51452;47.698;19.050;2023-01-28T15:26:19;3.60;72.03
64937;SHT30;51452;47.698;19.050;2023-01-28T15:28:46;3.70;71.84
64937;SHT30;51452;47.698;19.050;2023-01-28T15:34:03;3.46;71.80
64937;SHT30;51452;47.698;19.050;2023-01-28T15:36:34;3.50;71.93
64937;SHT30;51452;47.698;19.050;2023-01-28T15:39:00;3.46;71.93
64937;SHT30;51452;47.698;19.050;2023-01-28T15:41:34;3.50;71.96
64937;SHT30;51452;47.698;19.050;2023-01-28T15:44:01;3.43;71.67
64937;SHT30;51452;47.698;19.050;2023-01-28T15:46:28;3.47;71.73
64937;SHT30;51452;47.698;19.050;2023-01-28T15:48:58;3.47;71.79
64937;SHT30;51452;47.698;19.050;2023-01-28T15:51:27;3.50;71.59
64937;SHT30;51452;47.698;19.050;2023-01-28T15:53:58;3.53;71.55
64937;SHT30;51452;47.698;19.050;2023-01-28T15:56:26;3.57;71.53
64937;SHT30;51452;47.698;19.050;2023-01-28T15:58:52;3.50;71.63
64937;SHT30;51452;47.698;19.050;2023-01-28T16:01:19;3.46;71.82
64937;SHT30;51452;47.698;19.050;2023-01-28T16:04:00;3.51;71.62
64937;SHT30;51452;47.698;19.050;2023-01-28T16:06:31;3.41;71.91
64937;SHT30;51452;47.698;19.050;2023-01-28T16:09:02;3.33;72.01
64937;SHT30;51452;47.698;19.050;2023-01-28T16:11:36;3.27;72.45
64937;SHT30;51452;47.698;19.050;2023-01-28T16:16:46;3.33;72.71
64937;SHT30;51452;47.698;19.050;2023-01-28T16:19:31;3.40;72.64
64937;SHT30;51452;47.698;19.050;2023-01-28T16:22:17;3.34;72.71
64937;SHT30;51452;47.698;19.050;2023-01-28T16:24:50;3.34;73.00
64937;SHT30;51452;47.698;19.050;2023-01-28T16:27:25;3.38;72.78
64937;SHT30;51452;47.698;19.050;2023-01-28T16:29:51;3.34;72.97
64937;SHT30;51452;47.698;19.050;2023-01-28T16:32:37;3.26;73.24
64937;SHT30;51452;47.698;19.050;2023-01-28T16:35:25;3.26;73.43
64937;SHT30;51452;47.698;19.050;2023-01-28T16:37:51;3.22;73.53
64937;SHT30;51452;47.698;19.050;2023-01-28T16:40:19;3.33;73.47
64937;SHT30;51452;47.698;19.050;2023-01-28T16:42:45;3.30;73.28
64937;SHT30;51452;47.698;19.050;2023-01-28T16:45:17;3.33;73.14
64937;SHT30;51452;47.698;19.050;2023-01-28T16:47:42;3.28;73.37
64937;SHT30;51452;47.698;19.050;2023-01-28T16:50:10;3.31;73.41
64937;SHT30;51452;47.698;19.050;2023-01-28T16:52:36;3.15;73.70
64937;SHT30;51452;47.698;19.050;2023-01-28T16:55:02;3.12;73.96
64937;SHT30;51452;47.698;19.050;2023-01-28T16:57:29;3.13;73.93
64937;SHT30;51452;47.698;19.050;2023-01-28T16:59:57;3.07;73.71
64937;SHT30;51452;47.698;19.050;2023-01-28T17:02:22;3.10;73.86
64937;SHT30;51452;47.698;19.050;2023-01-28T17:04:48;3.10;73.93
64937;SHT30;51452;47.698;19.050;2023-01-28T17:07:13;3.16;73.78
64937;SHT30;51452;47.698;19.050;2023-01-28T17:09:39;3.12;73.76
64937;SHT30;51452;47.698;19.050;2023-01-28T17:12:05;3.05;73.64
64937;SHT30;51452;47.698;19.050;2023-01-28T17:14:30;3.06;73.83
64937;SHT30;51452;47.698;19.050;2023-01-28T17:16:56;3.02;73.83
64937;SHT30;51452;47.698;19.050;2023-01-28T17:19:21;3.09;73.95
64937;SHT30;51452;47.698;19.050;2023-01-28T17:21:48;3.12;73.94
64937;SHT30;51452;47.698;19.050;2023-01-28T17:24:14;3.09;74.07
64937;SHT30;51452;47.698;19.050;2023-01-28T17:26:40;3.06;73.89
64937;SHT30;51452;47.698;19.050;2023-01-28T17:29:07;2.97;74.05
64937;SHT30;51452;47.698;19.050;2023-01-28T17:31:33;2.92;74.13
64937;SHT30;51452;47.698;19.050;2023-01-28T17:33:59;2.97;74.25
64937;SHT30;51452;47.698;19.050;2023-01-28T17:36:26;3.06;73.98
64937;SHT30;51452;47.698;19.050;2023-01-28T17:38:53;3.02;74.06